sensor_id;sensor_type;location;lat;lon;timestamp;temperature;humidity
18412;DHT22;27097;51.738;19.472;2022-11-15T00:00:08;21.70;70.20
18412;DHT22;27097;51.738;19.472;2022-11-15T00:02:36;21.70;70.00
18412;DHT22;27097;51.738;19.472;2022-11-15T00:05:03;21.70;70.40
18412;DHT22;27097;51.738;19.472;2022-11-15T00:07:30;21.70;70.40
18412;DHT22;27097;51.738;19.472;2022-11-15T00:09:57;21.70;70.80
18412;DHT22;27097;51.738;19.472;2022-11-15T00:12:26;21.70;70.70
18412;DHT22;27097;51.738;19.472;2022-11-15T00:14:53;21.70;70.50
18412;DHT22;27097;51.738;19.472;2022-11-15T00:17:20;21.70;70.70
18412;DHT22;27097;51.738;19.472;2022-11-15T00:19:47;21.70;70.70
18412;DHT22;27097;51.738;19.472;2022-11-15T00:22:14;21.70;70.50
18412;DHT22;27097;51.738;19.472;2022-11-15T00:24:41;21.70;70.70
18412;DHT22;27097;51.738;19.472;2022-11-15T00:27:08;21.70;70.90
18412;DHT22;27097;51.738;19.472;2022-11-15T00:29:37;21.70;70.60
18412;DHT22;27097;51.738;19.472;2022-11-15T00:32:04;21.70;70.80
18412;DHT22;27097;51.738;19.472;2022-11-15T00:34:31;21.70;71.30
18412;DHT22;27097;51.738;19.472;2022-11-15T00:36:58;21.70;71.20
18412;DHT22;27097;51.738;19.472;2022-11-15T00:39:25;21.70;71.40
18412;DHT22;27097;51.738;19.472;2022-11-15T00:41:52;21.70;71.00
18412;DHT22;27097;51.738;19.472;2022-11-15T00:44:18;21.70;71.30
18412;DHT22;27097;51.738;19.472;2022-11-15T00:46:47;21.70;71.00
18412;DHT22;27097;51.738;19.472;2022-11-15T00:49:14;21.70;71.20
18412;DHT22;27097;51.738;19.472;2022-11-15T00:51:41;21.70;71.30
18412;DHT22;27097;51.738;19.472;2022-11-15T00:54:07;21.70;71.40
18412;DHT22;27097;51.738;19.472;2022-11-15T00:56:34;21.70;71.10
18412;DHT22;27097;51.738;19.472;2022-11-15T00:59:01;21.70;71.10
18412;DHT22;27097;51.738;19.472;2022-11-15T01:01:28;21.70;71.40
18412;DHT22;27097;51.738;19.472;2022-11-15T01:03:57;21.70;71.30
18412;DHT22;27097;51.738;19.472;2022-11-15T01:06:24;21.70;71.40
18412;DHT22;27097;51.738;19.472;2022-11-15T01:08:51;21.70;71.70
18412;DHT22;27097;51.738;19.472;2022-11-15T01:11:18;21.70;71.60
18412;DHT22;27097;51.738;19.472;2022-11-15T01:13:45;21.70;71.80
18412;DHT22;27097;51.738;19.472;2022-11-15T01:16:14;21.70;71.70
18412;DHT22;27097;51.738;19.472;2022-11-15T01:18:42;21.70;71.70
18412;DHT22;27097;51.738;19.472;2022-11-15T01:21:12;21.70;71.70
18412;DHT22;27097;51.738;19.472;2022-11-15T01:23:39;21.70;71.70
18412;DHT22;27097;51.738;19.472;2022-11-15T01:26:09;21.70;71.80
18412;DHT22;27097;51.738;19.472;2022-11-15T01:28:38;21.70;71.70
18412;DHT22;27097;51.738;19.472;2022-11-15T01:31:08;21.70;71.90
18412;DHT22;27097;51.738;19.472;2022-11-15T01:33:35;21.70;71.70
18412;DHT22;27097;51.738;19.472;2022-11-15T01:36:04;21.70;72.00
18412;DHT22;27097;51.738;19.472;2022-11-15T01:38:33;21.70;71.80
18412;DHT22;27097;51.738;19.472;2022-11-15T01:41:00;21.70;72.10
18412;DHT22;27097;51.738;19.472;2022-11-15T01:43:29;21.70;72.00
18412;DHT22;27097;51.738;19.472;2022-11-15T01:46:00;21.70;71.90
18412;DHT22;27097;51.738;19.472;2022-11-15T01:48:32;21.70;72.20
18412;DHT22;27097;51.738;19.472;2022-11-15T01:51:01;21.70;72.30
18412;DHT22;27097;51.738;19.472;2022-11-15T01:53:30;21.70;72.40
18412;DHT22;27097;51.738;19.472;2022-11-15T01:56:02;21.70;72.70
18412;DHT22;27097;51.738;19.472;2022-11-15T01:58:30;21.70;72.20
18412;DHT22;27097;51.738;19.472;2022-11-15T02:00:57;21.70;72.30
18412;DHT22;27097;51.738;19.472;2022-11-15T02:03:28;21.80;73.00
18412;DHT22;27097;51.738;19.472;2022-11-15T02:05:56;21.80;72.90
18412;DHT22;27097;51.738;19.472;2022-11-15T02:08:24;21.80;73.30
18412;DHT22;27097;51.738;19.472;2022-11-15T02:10:51;21.80;73.30
18412;DHT22;27097;51.738;19.472;2022-11-15T02:13:19;21.80;73.40
18412;DHT22;27097;51.738;19.472;2022-11-15T02:15:52;21.80;73.20
18412;DHT22;27097;51.738;19.472;2022-11-15T02:18:27;21.80;73.40
18412;DHT22;27097;51.738;19.472;2022-11-15T02:21:04;21.80;72.90
18412;DHT22;27097;51.738;19.472;2022-11-15T02:23:55;21.80;73.30
18412;DHT22;27097;51.738;19.472;2022-11-15T02:26:49;21.80;73.30
18412;DHT22;27097;51.738;19.472;2022-11-15T02:29:28;21.80;73.40
18412;DHT22;27097;51.738;19.472;2022-11-15T02:32:04;21.80;73.20
18412;DHT22;27097;51.738;19.472;2022-11-15T02:34:36;21.80;73.50
18412;DHT22;27097;51.738;19.472;2022-11-15T02:37:14;21.80;73.30
18412;DHT22;27097;51.738;19.472;2022-11-15T02:39:47;21.80;73.40
18412;DHT22;27097;51.738;19.472;2022-11-15T02:42:21;21.80;73.20
18412;DHT22;27097;51.738;19.472;2022-11-15T02:45:10;21.80;73.70
18412;DHT22;27097;51.738;19.472;2022-11-15T02:47:44;21.80;73.30
18412;DHT22;27097;51.738;19.472;2022-11-15T02:50:13;21.80;73.50
18412;DHT22;27097;51.738;19.472;2022-11-15T02:52:45;21.80;73.30
18412;DHT22;27097;51.738;19.472;2022-11-15T02:55:30;21.80;73.60
18412;DHT22;27097;51.738;19.472;2022-11-15T02:58:12;21.80;73.60
18412;DHT22;27097;51.738;19.472;2022-11-15T03:00:50;21.70;73.50
18412;DHT22;27097;51.738;19.472;2022-11-15T03:03:33;21.80;73.70
18412;DHT22;27097;51.738;19.472;2022-11-15T03:06:13;21.80;73.80
18412;DHT22;27097;51.738;19.472;2022-11-15T03:08:47;21.80;74.10
18412;DHT22;27097;51.738;19.472;2022-11-15T03:11:18;21.70;73.80
18412;DHT22;27097;51.738;19.472;2022-11-15T03:13:51;21.70;73.40
18412;DHT22;27097;51.738;19.472;2022-11-15T03:16:24;21.70;74.10
18412;DHT22;27097;51.738;19.472;2022-11-15T03:18:56;21.70;74.50
18412;DHT22;27097;51.738;19.472;2022-11-15T03:21:27;21.70;73.50
18412;DHT22;27097;51.738;19.472;2022-11-15T03:23:55;21.70;73.80
18412;DHT22;27097;51.738;19.472;2022-11-15T03:26:25;21.70;74.10
18412;DHT22;27097;51.738;19.472;2022-11-15T03:28:55;21.70;75.00
18412;DHT22;27097;51.738;19.472;2022-11-15T03:31:26;21.70;74.30
18412;DHT22;27097;51.738;19.472;2022-11-15T03:34:19;21.70;74.30
18412;DHT22;27097;51.738;19.472;2022-11-15T03:36:48;21.70;74.00
18412;DHT22;27097;51.738;19.472;2022-11-15T03:39:16;21.70;74.30
18412;DHT22;27097;51.738;19.472;2022-11-15T03:41:48;21.70;74.10
18412;DHT22;27097;51.738;19.472;2022-11-15T03:44:24;21.70;74.20
18412;DHT22;27097;51.738;19.472;2022-11-15T03:47:00;21.70;74.40
18412;DHT22;27097;51.738;19.472;2022-11-15T03:49:32;21.70;74.40
18412;DHT22;27097;51.738;19.472;2022-11-15T03:52:00;21.70;73.90
18412;DHT22;27097;51.738;19.472;2022-11-15T03:54:28;21.70;74.20
18412;DHT22;27097;51.738;19.472;2022-11-15T03:56:55;21.70;74.70
18412;DHT22;27097;51.738;19.472;2022-11-15T03:59:22;21.70;74.70
18412;DHT22;27097;51.738;19.472;2022-11-15T04:01:49;21.70;74.50
18412;DHT22;27097;51.738;19.472;2022-11-15T04:04:16;21.70;74.40
18412;DHT22;27097;51.738;19.472;2022-11-15T04:06:44;21.70;74.70
18412;DHT22;27097;51.738;19.472;2022-11-15T04:09:11;21.80;74.80
18412;DHT22;27097;51.738;19.472;2022-11-15T04:11:38;21.80;74.90
18412;DHT22;27097;51.738;19.472;2022-11-15T04:14:05;21.80;74.90
18412;DHT22;27097;51.738;19.472;2022-11-15T04:16:32;21.80;74.70
18412;DHT22;27097;51.738;19.472;2022-11-15T04:18:59;21.80;74.80
18412;DHT22;27097;51.738;19.472;2022-11-15T04:21:45;21.80;74.90
18412;DHT22;27097;51.738;19.472;2022-11-15T04:24:29;21.80;75.00
18412;DHT22;27097;51.738;19.472;2022-11-15T04:26:56;21.80;74.60
18412;DHT22;27097;51.738;19.472;2022-11-15T04:29:23;21.80;74.70
18412;DHT22;27097;51.738;19.472;2022-11-15T04:32:02;21.80;74.90
18412;DHT22;27097;51.738;19.472;2022-11-15T04:34:29;21.80;74.70
18412;DHT22;27097;51.738;19.472;2022-11-15T04:36:58;21.80;74.60
18412;DHT22;27097;51.738;19.472;2022-11-15T04:39:42;21.80;75.10
18412;DHT22;27097;51.738;19.472;2022-11-15T04:42:09;21.80;74.90
18412;DHT22;27097;51.738;19.472;2022-11-15T04:44:37;21.80;75.20
18412;DHT22;27097;51.738;19.472;2022-11-15T04:47:04;21.80;74.90
18412;DHT22;27097;51.738;19.472;2022-11-15T04:49:31;21.80;74.90
18412;DHT22;27097;51.738;19.472;2022-11-15T04:51:59;21.80;74.80
18412;DHT22;27097;51.738;19.472;2022-11-15T04:54:26;21.80;74.80
18412;DHT22;27097;51.738;19.472;2022-11-15T04:56:53;21.80;75.00
18412;DHT22;27097;51.738;19.472;2022-11-15T04:59:20;21.80;75.10
18412;DHT22;27097;51.738;19.472;2022-11-15T05:01:47;21.80;75.10
18412;DHT22;27097;51.738;19.472;2022-11-15T05:04:14;21.80;75.20
18412;DHT22;27097;51.738;19.472;2022-11-15T05:06:47;21.80;74.50
18412;DHT22;27097;51.738;19.472;2022-11-15T05:09:16;21.80;74.90
18412;DHT22;27097;51.738;19.472;2022-11-15T05:11:43;21.80;74.70
18412;DHT22;27097;51.738;19.472;2022-11-15T05:14:10;21.80;74.70
18412;DHT22;27097;51.738;19.472;2022-11-15T05:16:37;21.80;74.70
18412;DHT22;27097;51.738;19.472;2022-11-15T05:19:05;21.80;74.60
18412;DHT22;27097;51.738;19.472;2022-11-15T05:21:32;21.80;74.60
18412;DHT22;27097;51.738;19.472;2022-11-15T05:24:00;21.80;74.50
18412;DHT22;27097;51.738;19.472;2022-11-15T05:26:28;21.80;74.60
18412;DHT22;27097;51.738;19.472;2022-11-15T05:28:56;21.80;74.60
18412;DHT22;27097;51.738;19.472;2022-11-15T05:31:24;21.80;74.50
18412;DHT22;27097;51.738;19.472;2022-11-15T05:33:52;21.80;74.50
18412;DHT22;27097;51.738;19.472;2022-11-15T05:36:27;21.80;74.50
18412;DHT22;27097;51.738;19.472;2022-11-15T05:38:54;21.80;74.60
18412;DHT22;27097;51.738;19.472;2022-11-15T05:41:26;21.80;74.30
18412;DHT22;27097;51.738;19.472;2022-11-15T05:43:56;21.80;74.50
18412;DHT22;27097;51.738;19.472;2022-11-15T05:46:23;21.80;74.50
18412;DHT22;27097;51.738;19.472;2022-11-15T05:48:52;21.80;74.50
18412;DHT22;27097;51.738;19.472;2022-11-15T05:51:20;21.80;74.60
18412;DHT22;27097;51.738;19.472;2022-11-15T05:53:47;21.70;74.50
18412;DHT22;27097;51.738;19.472;2022-11-15T05:56:15;21.70;74.80
18412;DHT22;27097;51.738;19.472;2022-11-15T05:58:43;21.70;75.40
18412;DHT22;27097;51.738;19.472;2022-11-15T06:01:11;21.70;74.70
18412;DHT22;27097;51.738;19.472;2022-11-15T06:03:38;21.80;74.80
18412;DHT22;27097;51.738;19.472;2022-11-15T06:06:05;21.80;74.90
18412;DHT22;27097;51.738;19.472;2022-11-15T06:08:32;21.80;74.70
18412;DHT22;27097;51.738;19.472;2022-11-15T06:11:03;21.80;74.70
18412;DHT22;27097;51.738;19.472;2022-11-15T06:13:30;21.80;75.00
18412;DHT22;27097;51.738;19.472;2022-11-15T06:15:58;21.80;73.90
18412;DHT22;27097;51.738;19.472;2022-11-15T06:18:26;21.70;72.30
18412;DHT22;27097;51.738;19.472;2022-11-15T06:20:53;21.70;71.60
18412;DHT22;27097;51.738;19.472;2022-11-15T06:23:20;21.70;71.80
18412;DHT22;27097;51.738;19.472;2022-11-15T06:25:52;21.70;72.10
18412;DHT22;27097;51.738;19.472;2022-11-15T06:28:19;21.70;72.10
18412;DHT22;27097;51.738;19.472;2022-11-15T06:30:46;21.70;71.90
18412;DHT22;27097;51.738;19.472;2022-11-15T06:33:13;21.70;72.00
18412;DHT22;27097;51.738;19.472;2022-11-15T06:35:41;21.70;71.40
18412;DHT22;27097;51.738;19.472;2022-11-15T06:38:09;21.70;71.30
18412;DHT22;27097;51.738;19.472;2022-11-15T06:40:38;21.70;71.20
18412;DHT22;27097;51.738;19.472;2022-11-15T06:43:05;21.70;70.40
18412;DHT22;27097;51.738;19.472;2022-11-15T06:45:32;21.70;70.40
18412;DHT22;27097;51.738;19.472;2022-11-15T06:47:59;21.60;69.90
18412;DHT22;27097;51.738;19.472;2022-11-15T06:50:29;21.60;69.50
18412;DHT22;27097;51.738;19.472;2022-11-15T06:53:00;21.60;70.60
18412;DHT22;27097;51.738;19.472;2022-11-15T06:55:28;21.60;72.00
18412;DHT22;27097;51.738;19.472;2022-11-15T06:57:55;21.60;72.20
18412;DHT22;27097;51.738;19.472;2022-11-15T07:00:22;21.60;72.50
18412;DHT22;27097;51.738;19.472;2022-11-15T07:02:56;21.60;72.30
18412;DHT22;27097;51.738;19.472;2022-11-15T07:05:31;21.60;73.40
18412;DHT22;27097;51.738;19.472;2022-11-15T07:08:01;21.60;73.80
18412;DHT22;27097;51.738;19.472;2022-11-15T07:10:30;21.60;72.90
18412;DHT22;27097;51.738;19.472;2022-11-15T07:13:00;21.60;71.80
18412;DHT22;27097;51.738;19.472;2022-11-15T07:15:27;21.60;71.40
18412;DHT22;27097;51.738;19.472;2022-11-15T07:17:55;21.60;70.80
18412;DHT22;27097;51.738;19.472;2022-11-15T07:20:22;21.60;69.90
18412;DHT22;27097;51.738;19.472;2022-11-15T07:22:49;21.60;69.70
18412;DHT22;27097;51.738;19.472;2022-11-15T07:25:18;21.60;69.10
18412;DHT22;27097;51.738;19.472;2022-11-15T07:27:54;21.60;68.30
18412;DHT22;27097;51.738;19.472;2022-11-15T07:30:21;21.60;68.60
18412;DHT22;27097;51.738;19.472;2022-11-15T07:32:52;21.60;69.50
18412;DHT22;27097;51.738;19.472;2022-11-15T07:35:19;21.60;69.90
18412;DHT22;27097;51.738;19.472;2022-11-15T07:37:53;21.60;70.60
18412;DHT22;27097;51.738;19.472;2022-11-15T07:40:22;21.60;69.60
18412;DHT22;27097;51.738;19.472;2022-11-15T07:42:49;21.60;70.30
18412;DHT22;27097;51.738;19.472;2022-11-15T07:45:19;21.60;70.40
18412;DHT22;27097;51.738;19.472;2022-11-15T07:47:46;21.60;70.10
18412;DHT22;27097;51.738;19.472;2022-11-15T07:50:13;21.60;70.50
18412;DHT22;27097;51.738;19.472;2022-11-15T07:52:40;21.60;70.30
18412;DHT22;27097;51.738;19.472;2022-11-15T07:55:08;21.70;70.30
18412;DHT22;27097;51.738;19.472;2022-11-15T07:57:37;21.70;69.90
18412;DHT22;27097;51.738;19.472;2022-11-15T08:00:05;21.70;69.80
18412;DHT22;27097;51.738;19.472;2022-11-15T08:02:32;21.70;69.80
18412;DHT22;27097;51.738;19.472;2022-11-15T08:04:59;21.70;69.80
18412;DHT22;27097;51.738;19.472;2022-11-15T08:07:29;21.70;69.70
18412;DHT22;27097;51.738;19.472;2022-11-15T08:09:56;21.70;69.60
18412;DHT22;27097;51.738;19.472;2022-11-15T08:12:23;21.70;69.30
18412;DHT22;27097;51.738;19.472;2022-11-15T08:14:52;21.80;69.30
18412;DHT22;27097;51.738;19.472;2022-11-15T08:17:19;21.80;69.60
18412;DHT22;27097;51.738;19.472;2022-11-15T08:19:46;21.80;68.90
18412;DHT22;27097;51.738;19.472;2022-11-15T08:22:13;21.80;68.90
18412;DHT22;27097;51.738;19.472;2022-11-15T08:24:40;21.80;68.90
18412;DHT22;27097;51.738;19.472;2022-11-15T08:27:07;21.80;68.80
18412;DHT22;27097;51.738;19.472;2022-11-15T08:29:40;21.80;68.70
18412;DHT22;27097;51.738;19.472;2022-11-15T08:32:09;21.80;68.50
18412;DHT22;27097;51.738;19.472;2022-11-15T08:34:37;21.80;68.80
18412;DHT22;27097;51.738;19.472;2022-11-15T08:37:04;21.80;68.30
18412;DHT22;27097;51.738;19.472;2022-11-15T08:39:31;21.90;68.70
18412;DHT22;27097;51.738;19.472;2022-11-15T08:41:58;21.90;68.90
18412;DHT22;27097;51.738;19.472;2022-11-15T08:44:25;21.90;69.00
18412;DHT22;27097;51.738;19.472;2022-11-15T08:46:52;21.90;68.80
18412;DHT22;27097;51.738;19.472;2022-11-15T08:49:20;22.00;68.80
18412;DHT22;27097;51.738;19.472;2022-11-15T08:51:47;22.00;68.00
18412;DHT22;27097;51.738;19.472;2022-11-15T08:54:14;22.00;67.70
18412;DHT22;27097;51.738;19.472;2022-11-15T08:56:41;22.00;67.70
18412;DHT22;27097;51.738;19.472;2022-11-15T08:59:08;22.10;68.50
18412;DHT22;27097;51.738;19.472;2022-11-15T09:01:34;22.10;68.40
18412;DHT22;27097;51.738;19.472;2022-11-15T09:04:01;22.10;67.20
18412;DHT22;27097;51.738;19.472;2022-11-15T09:06:30;22.10;67.50
18412;DHT22;27097;51.738;19.472;2022-11-15T09:08:57;22.10;69.20
18412;DHT22;27097;51.738;19.472;2022-11-15T09:11:25;22.20;68.50
18412;DHT22;27097;51.738;19.472;2022-11-15T09:13:52;22.20;69.30
18412;DHT22;27097;51.738;19.472;2022-11-15T09:16:19;22.20;69.50
18412;DHT22;27097;51.738;19.472;2022-11-15T09:18:46;22.30;69.80
18412;DHT22;27097;51.738;19.472;2022-11-15T09:21:13;22.30;69.60
18412;DHT22;27097;51.738;19.472;2022-11-15T09:23:41;22.40;69.70
18412;DHT22;27097;51.738;19.472;2022-11-15T09:26:08;22.40;69.60
18412;DHT22;27097;51.738;19.472;2022-11-15T09:28:36;22.40;69.50
18412;DHT22;27097;51.738;19.472;2022-11-15T09:31:05;22.50;69.50
18412;DHT22;27097;51.738;19.472;2022-11-15T09:33:32;22.60;69.40
18412;DHT22;27097;51.738;19.472;2022-11-15T09:36:00;22.60;69.10
18412;DHT22;27097;51.738;19.472;2022-11-15T09:38:30;22.60;69.00
18412;DHT22;27097;51.738;19.472;2022-11-15T09:41:15;22.70;68.90
18412;DHT22;27097;51.738;19.472;2022-11-15T09:43:49;22.70;68.80
18412;DHT22;27097;51.738;19.472;2022-11-15T09:46:24;22.80;69.00
18412;DHT22;27097;51.738;19.472;2022-11-15T09:48:53;22.80;68.70
18412;DHT22;27097;51.738;19.472;2022-11-15T09:51:26;22.80;68.70
18412;DHT22;27097;51.738;19.472;2022-11-15T09:54:00;22.90;68.60
18412;DHT22;27097;51.738;19.472;2022-11-15T09:56:35;22.90;68.60
18412;DHT22;27097;51.738;19.472;2022-11-15T09:59:27;22.90;68.70
18412;DHT22;27097;51.738;19.472;2022-11-15T10:02:12;22.90;68.80
18412;DHT22;27097;51.738;19.472;2022-11-15T10:04:44;22.90;69.30
18412;DHT22;27097;51.738;19.472;2022-11-15T10:07:16;22.90;69.40
18412;DHT22;27097;51.738;19.472;2022-11-15T10:09:49;23.00;69.50
18412;DHT22;27097;51.738;19.472;2022-11-15T10:12:19;22.90;69.80
18412;DHT22;27097;51.738;19.472;2022-11-15T10:14:49;23.00;70.10
18412;DHT22;27097;51.738;19.472;2022-11-15T10:17:39;22.90;70.90
18412;DHT22;27097;51.738;19.472;2022-11-15T10:20:14;23.00;70.20
18412;DHT22;27097;51.738;19.472;2022-11-15T10:22:46;22.90;70.30
18412;DHT22;27097;51.738;19.472;2022-11-15T10:25:20;22.90;70.30
18412;DHT22;27097;51.738;19.472;2022-11-15T10:27:55;22.90;70.20
18412;DHT22;27097;51.738;19.472;2022-11-15T10:30:28;22.80;70.10
18412;DHT22;27097;51.738;19.472;2022-11-15T10:32:56;22.80;70.50
18412;DHT22;27097;51.738;19.472;2022-11-15T10:35:25;22.90;71.00
18412;DHT22;27097;51.738;19.472;2022-11-15T10:38:00;22.90;71.10
18412;DHT22;27097;51.738;19.472;2022-11-15T10:40:30;22.90;71.60
18412;DHT22;27097;51.738;19.472;2022-11-15T10:43:12;22.80;72.20
18412;DHT22;27097;51.738;19.472;2022-11-15T10:45:40;22.80;72.50
18412;DHT22;27097;51.738;19.472;2022-11-15T10:48:23;22.80;73.30
18412;DHT22;27097;51.738;19.472;2022-11-15T10:50:52;22.80;73.80
18412;DHT22;27097;51.738;19.472;2022-11-15T10:53:38;22.80;74.60
18412;DHT22;27097;51.738;19.472;2022-11-15T10:56:11;22.80;72.90
18412;DHT22;27097;51.738;19.472;2022-11-15T10:58:41;22.90;72.00
18412;DHT22;27097;51.738;19.472;2022-11-15T11:01:12;22.90;71.60
18412;DHT22;27097;51.738;19.472;2022-11-15T11:03:40;22.90;70.70
18412;DHT22;27097;51.738;19.472;2022-11-15T11:06:11;23.00;71.00
18412;DHT22;27097;51.738;19.472;2022-11-15T11:08:38;23.10;72.00
18412;DHT22;27097;51.738;19.472;2022-11-15T11:11:06;23.10;70.20
18412;DHT22;27097;51.738;19.472;2022-11-15T11:13:36;23.20;69.50
18412;DHT22;27097;51.738;19.472;2022-11-15T11:16:34;23.30;68.80
18412;DHT22;27097;51.738;19.472;2022-11-15T11:19:15;23.30;67.50
18412;DHT22;27097;51.738;19.472;2022-11-15T11:21:49;23.40;68.10
18412;DHT22;27097;51.738;19.472;2022-11-15T11:24:24;23.40;65.90
18412;DHT22;27097;51.738;19.472;2022-11-15T11:27:08;23.40;66.80
18412;DHT22;27097;51.738;19.472;2022-11-15T11:29:49;23.40;66.30
18412;DHT22;27097;51.738;19.472;2022-11-15T11:35:43;23.40;69.00
18412;DHT22;27097;51.738;19.472;2022-11-15T11:38:53;23.40;70.30
18412;DHT22;27097;51.738;19.472;2022-11-15T11:44:34;23.20;63.90
18412;DHT22;27097;51.738;19.472;2022-11-15T11:47:09;23.20;61.00
18412;DHT22;27097;51.738;19.472;2022-11-15T11:49:42;23.00;62.50
18412;DHT22;27097;51.738;19.472;2022-11-15T11:52:14;23.00;64.30
18412;DHT22;27097;51.738;19.472;2022-11-15T11:54:50;22.80;63.90
18412;DHT22;27097;51.738;19.472;2022-11-15T11:57:28;22.80;61.60
18412;DHT22;27097;51.738;19.472;2022-11-15T12:00:03;22.80;62.40
18412;DHT22;27097;51.738;19.472;2022-11-15T12:02:33;22.80;64.30
18412;DHT22;27097;51.738;19.472;2022-11-15T12:05:09;22.80;62.90
18412;DHT22;27097;51.738;19.472;2022-11-15T12:07:39;22.80;64.10
18412;DHT22;27097;51.738;19.472;2022-11-15T12:10:17;22.80;64.00
18412;DHT22;27097;51.738;19.472;2022-11-15T12:12:52;22.80;61.70
18412;DHT22;27097;51.738;19.472;2022-11-15T12:15:23;22.80;61.40
18412;DHT22;27097;51.738;19.472;2022-11-15T12:17:52;22.90;63.40
18412;DHT22;27097;51.738;19.472;2022-11-15T12:20:23;22.90;63.10
18412;DHT22;27097;51.738;19.472;2022-11-15T12:23:05;22.90;63.30
18412;DHT22;27097;51.738;19.472;2022-11-15T12:25:38;22.90;63.40
18412;DHT22;27097;51.738;19.472;2022-11-15T12:28:13;22.90;63.90
18412;DHT22;27097;51.738;19.472;2022-11-15T12:30:44;23.00;63.50
18412;DHT22;27097;51.738;19.472;2022-11-15T12:33:30;22.90;62.30
18412;DHT22;27097;51.738;19.472;2022-11-15T12:35:59;23.00;64.90
18412;DHT22;27097;51.738;19.472;2022-11-15T12:38:55;22.90;64.30
18412;DHT22;27097;51.738;19.472;2022-11-15T12:41:24;22.90;64.80
18412;DHT22;27097;51.738;19.472;2022-11-15T12:43:51;22.90;64.20
18412;DHT22;27097;51.738;19.472;2022-11-15T12:49:43;22.90;64.00
18412;DHT22;27097;51.738;19.472;2022-11-15T12:52:10;22.90;64.00
18412;DHT22;27097;51.738;19.472;2022-11-15T12:57:54;22.90;64.00
18412;DHT22;27097;51.738;19.472;2022-11-15T13:00:45;22.90;65.70
18412;DHT22;27097;51.738;19.472;2022-11-15T13:03:33;22.90;65.30
18412;DHT22;27097;51.738;19.472;2022-11-15T13:06:39;22.90;65.20
18412;DHT22;27097;51.738;19.472;2022-11-15T13:12:50;22.90;65.00
18412;DHT22;27097;51.738;19.472;2022-11-15T13:15:59;22.90;65.40
18412;DHT22;27097;51.738;19.472;2022-11-15T13:18:31;22.90;65.20
18412;DHT22;27097;51.738;19.472;2022-11-15T13:21:00;22.90;66.10
18412;DHT22;27097;51.738;19.472;2022-11-15T13:23:27;22.90;66.10
18412;DHT22;27097;51.738;19.472;2022-11-15T13:26:04;22.80;66.30
18412;DHT22;27097;51.738;19.472;2022-11-15T13:28:36;22.90;66.60
18412;DHT22;27097;51.738;19.472;2022-11-15T13:31:19;22.80;67.20
18412;DHT22;27097;51.738;19.472;2022-11-15T13:33:48;22.80;67.00
18412;DHT22;27097;51.738;19.472;2022-11-15T13:36:18;22.80;66.20
18412;DHT22;27097;51.738;19.472;2022-11-15T13:38:54;22.80;66.70
18412;DHT22;27097;51.738;19.472;2022-11-15T13:41:24;22.70;66.70
18412;DHT22;27097;51.738;19.472;2022-11-15T13:43:52;22.70;66.80
18412;DHT22;27097;51.738;19.472;2022-11-15T13:46:22;22.70;65.00
18412;DHT22;27097;51.738;19.472;2022-11-15T13:48:54;22.60;66.50
18412;DHT22;27097;51.738;19.472;2022-11-15T13:51:26;22.60;66.00
18412;DHT22;27097;51.738;19.472;2022-11-15T13:53:58;22.60;64.80
18412;DHT22;27097;51.738;19.472;2022-11-15T13:56:27;22.60;66.00
18412;DHT22;27097;51.738;19.472;2022-11-15T13:58:54;22.50;66.50
18412;DHT22;27097;51.738;19.472;2022-11-15T14:01:23;22.50;69.00
18412;DHT22;27097;51.738;19.472;2022-11-15T14:03:56;22.50;68.80
18412;DHT22;27097;51.738;19.472;2022-11-15T14:06:25;22.50;63.20
18412;DHT22;27097;51.738;19.472;2022-11-15T14:12:28;22.50;67.30
18412;DHT22;27097;51.738;19.472;2022-11-15T14:14:56;22.50;68.50
18412;DHT22;27097;51.738;19.472;2022-11-15T14:17:37;22.50;68.40
18412;DHT22;27097;51.738;19.472;2022-11-15T14:20:29;22.50;68.40
18412;DHT22;27097;51.738;19.472;2022-11-15T14:22:59;22.40;68.60
18412;DHT22;27097;51.738;19.472;2022-11-15T14:25:27;22.40;69.50
18412;DHT22;27097;51.738;19.472;2022-11-15T14:28:16;22.40;71.40
18412;DHT22;27097;51.738;19.472;2022-11-15T14:30:56;22.40;71.60
18412;DHT22;27097;51.738;19.472;2022-11-15T14:33:28;22.40;71.20
18412;DHT22;27097;51.738;19.472;2022-11-15T14:35:56;22.40;71.20
18412;DHT22;27097;51.738;19.472;2022-11-15T14:38:23;22.40;71.60
18412;DHT22;27097;51.738;19.472;2022-11-15T14:40:51;22.30;71.70
18412;DHT22;27097;51.738;19.472;2022-11-15T14:43:19;22.30;71.80
18412;DHT22;27097;51.738;19.472;2022-11-15T14:45:46;22.30;71.70
18412;DHT22;27097;51.738;19.472;2022-11-15T14:48:13;22.30;71.60
18412;DHT22;27097;51.738;19.472;2022-11-15T14:50:41;22.30;72.30
18412;DHT22;27097;51.738;19.472;2022-11-15T14:53:12;22.30;72.00
18412;DHT22;27097;51.738;19.472;2022-11-15T14:55:40;22.30;71.70
18412;DHT22;27097;51.738;19.472;2022-11-15T14:58:07;22.30;72.80
18412;DHT22;27097;51.738;19.472;2022-11-15T15:00:35;22.40;72.60
18412;DHT22;27097;51.738;19.472;2022-11-15T15:03:03;22.40;72.80
18412;DHT22;27097;51.738;19.472;2022-11-15T15:05:32;22.40;72.90
18412;DHT22;27097;51.738;19.472;2022-11-15T15:08:01;22.50;72.90
18412;DHT22;27097;51.738;19.472;2022-11-15T15:10:31;22.50;73.10
18412;DHT22;27097;51.738;19.472;2022-11-15T15:12:59;22.50;73.40
18412;DHT22;27097;51.738;19.472;2022-11-15T15:15:31;22.50;73.50
18412;DHT22;27097;51.738;19.472;2022-11-15T15:17:58;22.50;73.60
18412;DHT22;27097;51.738;19.472;2022-11-15T15:20:25;22.50;73.80
18412;DHT22;27097;51.738;19.472;2022-11-15T15:22:53;22.50;74.00
18412;DHT22;27097;51.738;19.472;2022-11-15T15:25:27;22.50;74.00
18412;DHT22;27097;51.738;19.472;2022-11-15T15:27:54;22.50;73.80
18412;DHT22;27097;51.738;19.472;2022-11-15T15:30:22;22.50;73.60
18412;DHT22;27097;51.738;19.472;2022-11-15T15:32:50;22.50;73.30
18412;DHT22;27097;51.738;19.472;2022-11-15T15:35:18;22.50;73.00
18412;DHT22;27097;51.738;19.472;2022-11-15T15:37:46;22.40;72.70
18412;DHT22;27097;51.738;19.472;2022-11-15T15:40:18;22.50;72.70
18412;DHT22;27097;51.738;19.472;2022-11-15T15:42:47;22.50;72.70
18412;DHT22;27097;51.738;19.472;2022-11-15T15:45:15;22.50;72.60
18412;DHT22;27097;51.738;19.472;2022-11-15T15:47:43;22.50;72.50
18412;DHT22;27097;51.738;19.472;2022-11-15T15:50:20;22.50;72.60
18412;DHT22;27097;51.738;19.472;2022-11-15T15:52:47;22.50;72.70
18412;DHT22;27097;51.738;19.472;2022-11-15T15:55:14;22.50;72.70
18412;DHT22;27097;51.738;19.472;2022-11-15T15:57:41;22.40;72.70